Time;durP1;ratioP1;P1;durP2;ratioP2;P2;SDS_P1;SDS_P2;PMS_P1;PMS_P2;Temp;Humidity;BMP_temperature;BMP_pressure;BME280_temperature;BME280_humidity;BME280_pressure;Samples;Min_cycle;Max_cycle;Signal;HPM_P1;HPM_P2
2022/02/23 00:00:42;;;;;;;7.23;2.63;;;;;;;;;;5020335;28;20206;-55
2022/02/23 00:03:08;;;;;;;7.63;2.83;;;;;;;;;;5038436;28;20177;-55
2022/02/23 00:05:34;;;;;;;9.20;2.23;;;;;;;;;;5028465;28;20719;-55
2022/02/23 00:08:01;;;;;;;11.07;3.03;;;;;;;;;;5029206;28;20197;-56
2022/02/23 00:10:27;;;;;;;11.40;3.23;;;;;;;;;;5033029;28;20215;-56
2022/02/23 00:12:53;;;;;;;7.80;2.60;;;;;;;;;;5036386;28;20660;-55
2022/02/23 00:15:19;;;;;;;3.53;2.10;;;;;;;;;;5028052;28;20707;-56
2022/02/23 00:17:45;;;;;;;12.43;3.03;;;;;;;;;;5030306;28;20537;-56
2022/02/23 00:20:12;;;;;;;5.20;2.53;;;;;;;;;;5030061;28;20207;-55
2022/02/23 00:22:38;;;;;;;13.63;3.67;;;;;;;;;;5039053;28;20169;-55
2022/02/23 00:25:05;;;;;;;6.90;2.70;;;;;;;;;;5038322;28;20277;-56
2022/02/23 00:27:31;;;;;;;8.47;2.57;;;;;;;;;;5035065;28;20193;-55
2022/02/23 00:29:57;;;;;;;12.23;2.80;;;;;;;;;;5030339;28;20580;-57
2022/02/23 00:32:23;;;;;;;8.57;2.37;;;;;;;;;;5030324;28;20185;-56
2022/02/23 00:34:50;;;;;;;11.37;2.90;;;;;;;;;;5009180;28;20736;-56
2022/02/23 00:37:17;;;;;;;5.87;2.57;;;;;;;;;;5012883;28;20205;-55
2022/02/23 00:39:43;;;;;;;12.17;3.47;;;;;;;;;;5009831;28;20192;-56
2022/02/23 00:42:09;;;;;;;5.70;2.47;;;;;;;;;;5029996;28;20498;-55
2022/02/23 00:44:36;;;;;;;9.20;2.47;;;;;;;;;;5023696;28;20241;-55
2022/02/23 00:47:02;;;;;;;6.53;2.73;;;;;;;;;;5016433;28;20182;-55
2022/02/23 00:49:29;;;;;;;5.90;2.50;;;;;;;;;;5026997;28;20204;-55
2022/02/23 00:51:55;;;;;;;8.50;3.37;;;;;;;;;;5011280;28;20696;-55
2022/02/23 00:54:22;;;;;;;9.63;2.87;;;;;;;;;;5020923;28;20221;-55
2022/02/23 00:56:49;;;;;;;10.63;2.77;;;;;;;;;;5005086;28;20579;-55
2022/02/23 00:59:16;;;;;;;7.40;2.43;;;;;;;;;;5012844;28;20280;-55
2022/02/23 01:01:43;;;;;;;5.50;2.40;;;;;;;;;;5017985;28;20229;-55
2022/02/23 01:04:10;;;;;;;7.83;2.67;;;;;;;;;;5021256;28;20198;-55
2022/02/23 01:06:36;;;;;;;7.07;2.73;;;;;;;;;;5023390;28;20236;-55
2022/02/23 01:09:03;;;;;;;7.40;2.23;;;;;;;;;;5022735;28;20178;-55
2022/02/23 01:11:29;;;;;;;9.00;2.70;;;;;;;;;;5025546;28;20706;-56
2022/02/23 01:13:55;;;;;;;6.53;2.00;;;;;;;;;;5012661;28;20955;-55
2022/02/23 01:16:21;;;;;;;7.37;2.57;;;;;;;;;;5024391;28;20205;-57
2022/02/23 01:18:48;;;;;;;6.77;2.20;;;;;;;;;;5023143;28;20608;-55
2022/02/23 01:21:14;;;;;;;5.63;2.40;;;;;;;;;;5024651;28;20244;-55
2022/02/23 01:23:41;;;;;;;9.70;2.30;;;;;;;;;;5025940;28;20191;-56
2022/02/23 01:26:07;;;;;;;8.40;2.87;;;;;;;;;;5023963;28;20178;-55
2022/02/23 01:28:37;;;;;;;9.23;2.17;;;;;;;;;;5024645;28;20372;-55
2022/02/23 01:31:03;;;;;;;6.03;2.00;;;;;;;;;;5029460;28;20660;-56
2022/02/23 01:33:29;;;;;;;6.30;2.80;;;;;;;;;;5022718;28;20232;-55
2022/02/23 01:35:58;;;;;;;6.37;2.10;;;;;;;;;;5024853;28;20185;-56
2022/02/23 01:38:25;;;;;;;10.20;2.63;;;;;;;;;;5015415;28;20182;-56
2022/02/23 01:40:51;;;;;;;7.53;2.50;;;;;;;;;;5024683;28;20236;-55
2022/02/23 01:43:18;;;;;;;6.73;1.90;;;;;;;;;;5024462;28;20178;-55
2022/02/23 01:45:44;;;;;;;5.00;2.10;;;;;;;;;;5023788;28;20312;-55
2022/02/23 01:48:11;;;;;;;8.33;2.20;;;;;;;;;;5018545;28;20554;-55
2022/02/23 01:50:38;;;;;;;7.50;2.33;;;;;;;;;;5009599;28;20184;-56
2022/02/23 01:53:05;;;;;;;4.53;2.07;;;;;;;;;;5025240;28;20188;-55
2022/02/23 01:55:32;;;;;;;6.83;2.30;;;;;;;;;;5027339;28;20201;-55
2022/02/23 01:57:58;;;;;;;6.97;2.87;;;;;;;;;;5028829;28;20560;-56
2022/02/23 02:00:24;;;;;;;7.63;2.70;;;;;;;;;;5031273;28;20184;-55
2022/02/23 02:02:50;;;;;;;4.43;2.07;;;;;;;;;;5029814;28;20761;-55
2022/02/23 02:05:17;;;;;;;7.90;2.87;;;;;;;;;;5027545;28;20189;-55
2022/02/23 02:07:43;;;;;;;7.93;2.00;;;;;;;;;;5028991;28;20211;-55
2022/02/23 02:10:10;;;;;;;8.27;2.87;;;;;;;;;;5026664;28;20170;-56
2022/02/23 02:12:38;;;;;;;9.10;2.37;;;;;;;;;;5017986;28;20177;-55
2022/02/23 02:15:08;;;;;;;8.17;2.33;;;;;;;;;;5022337;28;20177;-55
2022/02/23 02:17:36;;;;;;;6.60;2.63;;;;;;;;;;5023967;28;20598;-55
2022/02/23 02:20:02;;;;;;;9.10;2.30;;;;;;;;;;5024451;28;20264;-55
2022/02/23 02:22:29;;;;;;;9.33;2.50;;;;;;;;;;5030642;28;20193;-55
2022/02/23 02:24:56;;;;;;;7.47;2.57;;;;;;;;;;5023239;28;20175;-55
2022/02/23 02:27:22;;;;;;;7.30;3.03;;;;;;;;;;5023437;28;20261;-55
2022/02/23 02:29:48;;;;;;;5.50;2.17;;;;;;;;;;5022714;28;20540;-55
2022/02/23 02:32:17;;;;;;;4.70;2.17;;;;;;;;;;5027713;28;20170;-55
2022/02/23 02:34:43;;;;;;;6.90;2.30;;;;;;;;;;5024350;28;20540;-55
2022/02/23 02:37:09;;;;;;;6.70;2.73;;;;;;;;;;5027629;28;20182;-56
2022/02/23 02:39:36;;;;;;;4.97;2.43;;;;;;;;;;5024921;28;20177;-55
2022/02/23 02:42:02;;;;;;;9.67;2.57;;;;;;;;;;5013747;28;20336;-55
2022/02/23 02:44:29;;;;;;;9.33;2.07;;;;;;;;;;5003457;28;20551;-55
2022/02/23 02:46:55;;;;;;;7.20;2.83;;;;;;;;;;5032197;28;20196;-56
2022/02/23 02:49:21;;;;;;;8.37;2.70;;;;;;;;;;5024029;28;20532;-55
2022/02/23 02:51:48;;;;;;;7.87;2.87;;;;;;;;;;5027083;28;20662;-55
2022/02/23 02:54:14;;;;;;;15.43;2.53;;;;;;;;;;5008701;28;20201;-55
2022/02/23 02:56:40;;;;;;;3.73;2.33;;;;;;;;;;5025927;28;20197;-55
2022/02/23 02:59:06;;;;;;;10.60;2.53;;;;;;;;;;5021346;28;20185;-55
2022/02/23 03:01:33;;;;;;;8.83;3.43;;;;;;;;;;5025410;28;20205;-55
2022/02/23 03:03:59;;;;;;;9.10;2.60;;;;;;;;;;5031161;28;20388;-55
2022/02/23 03:06:26;;;;;;;6.53;2.97;;;;;;;;;;5015909;28;20235;-56
2022/02/23 03:08:53;;;;;;;5.37;2.80;;;;;;;;;;5025451;28;20174;-55
2022/02/23 03:11:22;;;;;;;8.70;2.90;;;;;;;;;;5025151;28;20182;-55
2022/02/23 03:13:49;;;;;;;10.20;2.77;;;;;;;;;;5019772;28;20177;-55
2022/02/23 03:16:15;;;;;;;5.53;2.30;;;;;;;;;;5008747;28;20178;-55
2022/02/23 03:18:42;;;;;;;9.47;3.23;;;;;;;;;;5013856;28;20531;-55
2022/02/23 03:21:09;;;;;;;8.77;3.27;;;;;;;;;;5025649;28;20501;-55
2022/02/23 03:23:37;;;;;;;5.90;2.67;;;;;;;;;;5024871;28;20625;-55
2022/02/23 03:26:03;;;;;;;10.87;3.43;;;;;;;;;;5025223;28;20185;-55
2022/02/23 03:28:31;;;;;;;6.23;3.00;;;;;;;;;;5025957;28;20810;-55
2022/02/23 03:30:57;;;;;;;7.20;2.67;;;;;;;;;;5032413;28;20192;-55
2022/02/23 03:33:23;;;;;;;8.70;2.67;;;;;;;;;;5005306;28;20275;-55
2022/02/23 03:35:50;;;;;;;8.83;2.70;;;;;;;;;;5015963;28;20271;-55
2022/02/23 03:38:16;;;;;;;7.90;2.80;;;;;;;;;;5025762;28;20236;-55
2022/02/23 03:40:43;;;;;;;6.60;2.47;;;;;;;;;;5016837;28;20229;-55
2022/02/23 03:43:10;;;;;;;5.80;2.73;;;;;;;;;;5014239;28;20630;-55
2022/02/23 03:45:36;;;;;;;5.50;2.90;;;;;;;;;;5007235;28;20614;-55
2022/02/23 03:48:03;;;;;;;5.93;2.80;;;;;;;;;;5022257;28;20594;-55
2022/02/23 03:50:29;;;;;;;5.37;2.97;;;;;;;;;;5025518;28;20182;-55
2022/02/23 03:52:55;;;;;;;7.20;2.50;;;;;;;;;;5006978;28;20780;-55
2022/02/23 03:55:21;;;;;;;5.50;2.63;;;;;;;;;;5013601;28;20845;-55
2022/02/23 03:57:48;;;;;;;8.10;3.10;;;;;;;;;;5018144;28;20240;-55
2022/02/23 04:00:15;;;;;;;7.80;2.73;;;;;;;;;;5024999;28;20173;-56
2022/02/23 04:02:42;;;;;;;4.80;2.27;;;;;;;;;;4995663;28;20546;-55
2022/02/23 04:05:08;;;;;;;5.80;2.57;;;;;;;;;;5024710;28;20182;-55
2022/02/23 04:07:34;;;;;;;8.17;3.37;;;;;;;;;;5027042;28;20188;-55
2022/02/23 04:10:01;;;;;;;4.17;2.30;;;;;;;;;;5026895;28;20660;-55
2022/02/23 04:12:27;;;;;;;5.93;2.63;;;;;;;;;;5018646;28;20188;-55
2022/02/23 04:14:54;;;;;;;7.97;2.57;;;;;;;;;;5013843;28;20300;-55
2022/02/23 04:17:20;;;;;;;6.33;3.13;;;;;;;;;;5008925;28;20269;-55
2022/02/23 04:19:46;;;;;;;6.23;2.47;;;;;;;;;;5030918;28;20637;-55
2022/02/23 04:22:12;;;;;;;6.27;2.40;;;;;;;;;;5023905;28;20288;-55
2022/02/23 04:24:39;;;;;;;10.47;2.93;;;;;;;;;;5009454;28;20862;-55
2022/02/23 04:27:05;;;;;;;8.70;3.33;;;;;;;;;;5024203;28;20188;-55
2022/02/23 04:29:31;;;;;;;6.03;2.27;;;;;;;;;;5026469;28;20182;-55
2022/02/23 04:31:58;;;;;;;8.77;3.30;;;;;;;;;;5024618;28;20281;-55
2022/02/23 04:34:25;;;;;;;10.47;2.83;;;;;;;;;;5025602;28;20216;-55
2022/02/23 04:36:51;;;;;;;10.87;2.83;;;;;;;;;;5026105;28;20186;-55
2022/02/23 04:39:17;;;;;;;6.93;2.10;;;;;;;;;;4998469;28;20192;-55
2022/02/23 04:41:43;;;;;;;6.37;2.50;;;;;;;;;;5020523;28;20260;-55
2022/02/23 04:44:10;;;;;;;6.60;2.20;;;;;;;;;;5024112;28;20549;-55
2022/02/23 04:46:36;;;;;;;7.83;3.10;;;;;;;;;;5022317;28;20179;-55
2022/02/23 04:49:03;;;;;;;3.57;2.50;;;;;;;;;;5033229;28;20708;-55
2022/02/23 04:51:30;;;;;;;6.03;2.27;;;;;;;;;;5015971;28;20615;-56
2022/02/23 04:53:57;;;;;;;8.80;3.40;;;;;;;;;;5031286;28;20637;-55
2022/02/23 04:56:23;;;;;;;6.23;2.80;;;;;;;;;;5025757;28;20250;-55
2022/02/23 04:58:49;;;;;;;6.30;2.43;;;;;;;;;;5028743;28;20182;-55
2022/02/23 05:01:15;;;;;;;9.63;3.00;;;;;;;;;;5034065;28;20679;-55
2022/02/23 05:03:42;;;;;;;3.60;2.20;;;;;;;;;;5016041;28;20577;-55
2022/02/23 05:06:08;;;;;;;11.67;3.47;;;;;;;;;;5031779;28;20201;-55
2022/02/23 05:08:34;;;;;;;5.33;2.80;;;;;;;;;;5037425;28;20625;-55
2022/02/23 05:11:01;;;;;;;5.50;2.87;;;;;;;;;;5028010;28;20190;-55
2022/02/23 05:13:27;;;;;;;7.53;3.57;;;;;;;;;;5029262;28;20265;-55
2022/02/23 05:16:02;;;;;;;7.97;3.43;;;;;;;;;;5012529;28;20186;-56
2022/02/23 05:18:29;;;;;;;5.00;2.93;;;;;;;;;;5028538;28;20189;-55
2022/02/23 05:20:56;;;;;;;12.33;3.37;;;;;;;;;;5029257;28;20304;-55
2022/02/23 05:23:22;;;;;;;9.60;3.00;;;;;;;;;;5013024;28;20200;-55
2022/02/23 05:25:49;;;;;;;6.93;3.27;;;;;;;;;;5011325;28;20224;-55
2022/02/23 05:28:16;;;;;;;11.57;3.20;;;;;;;;;;5030015;28;20183;-55
2022/02/23 05:30:42;;;;;;;8.53;2.80;;;;;;;;;;5025198;28;20192;-55
2022/02/23 05:33:08;;;;;;;7.40;3.07;;;;;;;;;;5032750;28;20261;-55
2022/02/23 05:35:35;;;;;;;6.90;2.77;;;;;;;;;;5023156;28;20769;-55
2022/02/23 05:38:01;;;;;;;5.43;2.67;;;;;;;;;;5020644;28;20198;-55
2022/02/23 05:40:27;;;;;;;5.37;2.43;;;;;;;;;;5025485;28;20178;-55
2022/02/23 05:42:54;;;;;;;5.30;2.47;;;;;;;;;;5026166;28;20243;-55
2022/02/23 05:45:21;;;;;;;10.83;3.40;;;;;;;;;;5011084;28;20186;-55
2022/02/23 05:47:51;;;;;;;6.57;2.97;;;;;;;;;;5009888;28;20303;-55
2022/02/23 05:50:17;;;;;;;6.40;2.13;;;;;;;;;;5006390;28;20227;-55
2022/02/23 05:52:44;;;;;;;5.93;3.07;;;;;;;;;;5010861;28;20618;-55
2022/02/23 05:55:11;;;;;;;9.13;3.33;;;;;;;;;;5026911;28;20554;-55
2022/02/23 05:57:37;;;;;;;6.70;2.70;;;;;;;;;;5027654;28;20194;-55
2022/02/23 06:00:04;;;;;;;5.40;3.27;;;;;;;;;;5027724;28;20565;-55
2022/02/23 06:02:31;;;;;;;6.03;2.67;;;;;;;;;;5018934;28;20200;-55
2022/02/23 06:04:57;;;;;;;6.97;2.67;;;;;;;;;;5014101;28;20177;-55
2022/02/23 06:07:23;;;;;;;14.47;3.30;;;;;;;;;;5030394;28;20197;-55
2022/02/23 06:09:50;;;;;;;7.03;2.13;;;;;;;;;;5026393;28;20222;-55
2022/02/23 06:12:16;;;;;;;10.10;2.40;;;;;;;;;;5023554;28;20193;-55
2022/02/23 06:14:45;;;;;;;4.93;2.53;;;;;;;;;;5027802;28;20221;-55
2022/02/23 06:17:11;;;;;;;8.97;2.63;;;;;;;;;;5005459;28;20182;-55
2022/02/23 06:19:37;;;;;;;9.20;2.70;;;;;;;;;;5016817;28;20189;-55
2022/02/23 06:22:03;;;;;;;10.93;3.43;;;;;;;;;;5032128;28;20205;-54
2022/02/23 06:24:29;;;;;;;7.10;2.20;;;;;;;;;;5032722;28;20177;-55
2022/02/23 06:26:57;;;;;;;6.40;2.87;;;;;;;;;;5029477;28;20774;-55
2022/02/23 06:29:23;;;;;;;7.33;2.23;;;;;;;;;;5028620;28;20219;-55
2022/02/23 06:32:02;;;;;;;5.83;2.60;;;;;;;;;;5013398;28;20188;-55
2022/02/23 06:34:28;;;;;;;6.43;2.50;;;;;;;;;;5037078;28;20696;-55
2022/02/23 06:36:54;;;;;;;8.70;2.33;;;;;;;;;;5033688;28;20589;-56
2022/02/23 06:39:21;;;;;;;8.47;3.00;;;;;;;;;;5024149;28;20643;-55
2022/02/23 06:41:48;;;;;;;8.27;2.53;;;;;;;;;;5034871;28;20204;-55
2022/02/23 06:44:15;;;;;;;7.23;2.87;;;;;;;;;;5037890;28;20174;-55
2022/02/23 06:46:41;;;;;;;7.27;2.20;;;;;;;;;;5043109;28;20205;-55
2022/02/23 06:49:07;;;;;;;7.23;2.10;;;;;;;;;;5049979;28;20208;-55
2022/02/23 06:51:33;;;;;;;5.30;2.50;;;;;;;;;;5047099;28;20209;-55
2022/02/23 06:53:59;;;;;;;6.60;2.87;;;;;;;;;;5032158;28;20518;-55
2022/02/23 06:56:28;;;;;;;3.60;2.30;;;;;;;;;;5047251;28;20290;-55
2022/02/23 06:58:55;;;;;;;6.93;2.70;;;;;;;;;;5015534;28;20596;-55
2022/02/23 07:01:21;;;;;;;6.93;2.63;;;;;;;;;;5019141;28;20209;-55
2022/02/23 07:03:48;;;;;;;4.77;2.67;;;;;;;;;;5040399;28;20648;-54
2022/02/23 07:06:14;;;;;;;7.07;2.43;;;;;;;;;;5040694;28;20184;-55
2022/02/23 07:08:47;;;;;;;4.80;2.20;;;;;;;;;;5034892;28;20202;-55
2022/02/23 07:11:14;;;;;;;9.10;2.93;;;;;;;;;;5035122;28;20193;-55
2022/02/23 07:13:41;;;;;;;4.50;2.20;;;;;;;;;;5047214;28;20193;-55
2022/02/23 07:16:07;;;;;;;10.43;2.77;;;;;;;;;;5029714;28;20249;-55
2022/02/23 07:18:33;;;;;;;4.70;2.30;;;;;;;;;;5038343;28;20596;-55
2022/02/23 07:20:59;;;;;;;5.80;2.43;;;;;;;;;;5032557;28;20753;-55
2022/02/23 07:23:26;;;;;;;3.47;2.40;;;;;;;;;;5041084;28;20173;-55
2022/02/23 07:25:52;;;;;;;6.60;2.47;;;;;;;;;;5032702;28;20174;-55
2022/02/23 07:28:19;;;;;;;5.20;2.47;;;;;;;;;;5031427;28;20178;-55
2022/02/23 07:30:45;;;;;;;3.93;1.90;;;;;;;;;;5044392;28;20837;-56
2022/02/23 07:33:13;;;;;;;5.97;2.00;;;;;;;;;;5014962;28;20232;-55
2022/02/23 07:35:41;;;;;;;7.43;2.87;;;;;;;;;;5028413;28;20514;-55
2022/02/23 07:38:08;;;;;;;5.07;2.37;;;;;;;;;;5034902;28;20547;-55
2022/02/23 07:40:34;;;;;;;6.00;2.53;;;;;;;;;;5052781;28;20184;-55
2022/02/23 07:43:04;;;;;;;5.13;2.40;;;;;;;;;;5019586;28;20173;-55
2022/02/23 07:45:32;;;;;;;3.67;2.10;;;;;;;;;;5026674;28;20724;-55
2022/02/23 07:47:58;;;;;;;5.30;2.63;;;;;;;;;;5034059;28;20177;-55
2022/02/23 07:50:25;;;;;;;6.27;2.90;;;;;;;;;;5030436;28;20173;-56
2022/02/23 07:52:52;;;;;;;3.50;2.50;;;;;;;;;;5008700;28;20185;-56
2022/02/23 07:55:24;;;;;;;3.37;2.60;;;;;;;;;;4993755;28;20242;-56
2022/02/23 07:57:54;;;;;;;5.40;3.43;;;;;;;;;;5037554;28;20222;-56
2022/02/23 08:00:22;;;;;;;3.83;2.40;;;;;;;;;;5044521;28;20719;-55
2022/02/23 08:02:49;;;;;;;4.83;2.30;;;;;;;;;;5010800;28;20228;-56
2022/02/23 08:05:17;;;;;;;5.00;2.87;;;;;;;;;;5031995;28;20193;-56
2022/02/23 08:07:47;;;;;;;6.97;2.63;;;;;;;;;;5039977;28;20169;-55
2022/02/23 08:10:13;;;;;;;6.63;2.67;;;;;;;;;;5023139;28;20206;-55
2022/02/23 08:12:39;;;;;;;9.07;3.53;;;;;;;;;;5034441;28;20182;-56
2022/02/23 08:20:37;;;;;;;8.93;3.27;;;;;;;;;;5032837;28;20181;-55
2022/02/23 08:23:03;;;;;;;6.07;2.60;;;;;;;;;;5028693;28;20206;-55
2022/02/23 08:25:29;;;;;;;7.37;3.33;;;;;;;;;;5032105;28;20177;-55
2022/02/23 08:27:56;;;;;;;7.90;3.07;;;;;;;;;;5033947;28;20177;-55
2022/02/23 08:30:22;;;;;;;5.63;3.10;;;;;;;;;;5027844;28;20213;-56
2022/02/23 08:32:48;;;;;;;10.17;3.43;;;;;;;;;;5037288;28;20181;-56
2022/02/23 08:35:15;;;;;;;6.37;3.23;;;;;;;;;;5061505;28;20190;-55
2022/02/23 08:37:41;;;;;;;8.90;3.57;;;;;;;;;;5037921;28;20579;-55
2022/02/23 08:40:08;;;;;;;9.57;3.50;;;;;;;;;;5025727;28;20247;-55
2022/02/23 08:42:34;;;;;;;12.13;3.33;;;;;;;;;;5010662;28;20210;-55
2022/02/23 08:45:00;;;;;;;10.77;3.80;;;;;;;;;;5024757;28;20208;-55
2022/02/23 08:47:28;;;;;;;8.87;4.67;;;;;;;;;;5014434;28;20181;-55
2022/02/23 08:49:54;;;;;;;8.77;4.13;;;;;;;;;;5030287;28;20687;-55
2022/02/23 08:52:21;;;;;;;6.87;4.30;;;;;;;;;;5028993;28;20616;-55
2022/02/23 08:54:47;;;;;;;7.63;4.20;;;;;;;;;;5012303;28;20188;-55
2022/02/23 08:57:19;;;;;;;7.27;4.00;;;;;;;;;;5012804;28;20205;-55
2022/02/23 08:59:45;;;;;;;7.63;3.63;;;;;;;;;;5030247;28;20182;-55
2022/02/23 09:02:12;;;;;;;8.07;4.20;;;;;;;;;;5029744;28;20201;-56
2022/02/23 09:04:38;;;;;;;10.20;4.00;;;;;;;;;;5032429;28;20215;-56
2022/02/23 09:07:04;;;;;;;9.30;4.47;;;;;;;;;;5030016;28;20170;-55
2022/02/23 09:09:31;;;;;;;10.20;4.57;;;;;;;;;;5029847;28;20224;-55
2022/02/23 09:11:57;;;;;;;9.70;4.47;;;;;;;;;;5030027;28;20185;-55
2022/02/23 09:14:23;;;;;;;7.60;3.73;;;;;;;;;;5018034;28;20656;-56
2022/02/23 09:16:53;;;;;;;7.43;4.30;;;;;;;;;;5030658;28;20185;-55
2022/02/23 09:19:19;;;;;;;6.80;4.10;;;;;;;;;;5010860;28;20186;-55
2022/02/23 09:21:45;;;;;;;10.43;4.60;;;;;;;;;;5029786;28;20201;-55
2022/02/23 09:24:11;;;;;;;8.03;4.17;;;;;;;;;;5044867;28;20181;-56
2022/02/23 09:26:37;;;;;;;12.40;3.97;;;;;;;;;;5030196;28;20170;-56
2022/02/23 09:29:03;;;;;;;8.23;3.63;;;;;;;;;;5034783;28;20231;-55
2022/02/23 09:31:29;;;;;;;10.30;4.03;;;;;;;;;;5030409;28;20232;-55
2022/02/23 09:33:55;;;;;;;10.07;4.33;;;;;;;;;;5008462;28;20301;-55
2022/02/23 09:36:22;;;;;;;8.10;4.50;;;;;;;;;;5028640;28;20726;-56
2022/02/23 09:38:48;;;;;;;5.80;3.53;;;;;;;;;;5026912;28;20174;-55
2022/02/23 09:41:16;;;;;;;7.90;4.70;;;;;;;;;;5016274;28;20258;-55
2022/02/23 09:43:47;;;;;;;8.73;4.40;;;;;;;;;;5030164;28;20216;-55
2022/02/23 09:46:18;;;;;;;7.63;3.80;;;;;;;;;;5022030;28;20656;-56
2022/02/23 09:48:44;;;;;;;6.73;3.80;;;;;;;;;;5028277;28;20645;-55
2022/02/23 09:51:10;;;;;;;10.27;4.00;;;;;;;;;;5028716;28;20190;-55
2022/02/23 09:53:44;;;;;;;5.97;4.00;;;;;;;;;;5029143;28;20281;-56
2022/02/23 09:56:12;;;;;;;8.93;4.33;;;;;;;;;;5025308;28;20243;-55
2022/02/23 09:58:38;;;;;;;9.60;4.57;;;;;;;;;;5027878;28;20182;-56
2022/02/23 10:01:05;;;;;;;8.40;4.20;;;;;;;;;;5010238;28;20202;-56
2022/02/23 10:03:35;;;;;;;6.37;4.10;;;;;;;;;;5043392;28;20185;-56
2022/02/23 10:06:02;;;;;;;11.53;5.10;;;;;;;;;;5011675;28;20702;-56
2022/02/23 10:08:37;;;;;;;12.13;4.63;;;;;;;;;;5010799;28;20661;-55
2022/02/23 10:11:04;;;;;;;7.67;3.20;;;;;;;;;;5026333;28;20200;-56
2022/02/23 10:13:30;;;;;;;7.57;3.20;;;;;;;;;;5028372;28;20186;-56
2022/02/23 10:15:58;;;;;;;11.63;4.73;;;;;;;;;;5044209;28;20177;-56
2022/02/23 10:18:28;;;;;;;8.83;4.00;;;;;;;;;;5034387;28;20192;-56
2022/02/23 10:20:54;;;;;;;9.53;3.77;;;;;;;;;;5028373;28;20174;-55
2022/02/23 10:23:23;;;;;;;8.10;3.93;;;;;;;;;;5028984;28;20206;-56
2022/02/23 10:25:52;;;;;;;11.57;4.17;;;;;;;;;;5012353;28;20181;-55
2022/02/23 10:28:20;;;;;;;7.23;3.90;;;;;;;;;;5028465;28;20194;-56
2022/02/23 10:30:53;;;;;;;6.77;3.90;;;;;;;;;;5034364;28;20178;-55
2022/02/23 10:33:22;;;;;;;10.67;4.50;;;;;;;;;;5026105;28;20213;-55
2022/02/23 10:35:53;;;;;;;8.83;3.67;;;;;;;;;;5043831;28;20180;-55
2022/02/23 10:38:20;;;;;;;8.57;3.43;;;;;;;;;;5026780;28;20209;-55
2022/02/23 10:40:46;;;;;;;8.87;3.33;;;;;;;;;;5010390;28;20243;-55
2022/02/23 10:43:29;;;;;;;8.80;3.27;;;;;;;;;;5026806;28;20190;-56
2022/02/23 10:46:03;;;;;;;6.60;3.60;;;;;;;;;;5026084;28;20195;-54
2022/02/23 10:48:34;;;;;;;7.70;3.30;;;;;;;;;;5019282;28;20708;-52
2022/02/23 10:51:00;;;;;;;6.63;3.30;;;;;;;;;;5010592;28;20759;-55
2022/02/23 10:53:27;;;;;;;10.60;3.27;;;;;;;;;;5013992;28;20216;-53
2022/02/23 10:55:53;;;;;;;5.03;2.90;;;;;;;;;;5028426;28;20178;-54
2022/02/23 10:58:19;;;;;;;9.00;3.77;;;;;;;;;;5020259;28;20186;-53
2022/02/23 11:00:50;;;;;;;9.00;3.07;;;;;;;;;;5028688;28;20184;-53
2022/02/23 11:03:20;;;;;;;8.07;3.47;;;;;;;;;;5024161;28;20664;-56
2022/02/23 11:05:50;;;;;;;8.33;3.00;;;;;;;;;;5028365;28;20193;-53
2022/02/23 11:08:17;;;;;;;7.10;3.37;;;;;;;;;;5027642;28;20225;-53
2022/02/23 11:10:44;;;;;;;11.10;3.43;;;;;;;;;;5010344;28;20637;-54
2022/02/23 11:13:17;;;;;;;8.13;3.43;;;;;;;;;;5030779;28;20192;-56
2022/02/23 11:15:44;;;;;;;6.13;3.03;;;;;;;;;;5028003;28;20478;-54
2022/02/23 11:18:13;;;;;;;5.53;3.20;;;;;;;;;;5025469;28;20186;-55
2022/02/23 11:20:46;;;;;;;7.40;2.67;;;;;;;;;;5029923;28;20181;-54
2022/02/23 11:23:22;;;;;;;7.40;3.10;;;;;;;;;;5009386;28;20189;-54
2022/02/23 11:25:51;;;;;;;6.27;3.13;;;;;;;;;;5016922;28;20671;-54
2022/02/23 11:28:29;;;;;;;6.77;2.70;;;;;;;;;;5037287;28;20169;-53
2022/02/23 11:30:56;;;;;;;5.17;2.60;;;;;;;;;;5032048;28;20644;-53
2022/02/23 11:33:42;;;;;;;5.83;2.80;;;;;;;;;;5031968;28;20719;-54
2022/02/23 11:36:18;;;;;;;6.47;2.90;;;;;;;;;;5040619;28;20636;-54
2022/02/23 11:38:47;;;;;;;4.97;2.80;;;;;;;;;;5031401;28;20169;-54
2022/02/23 11:41:23;;;;;;;7.93;2.70;;;;;;;;;;5032253;28;20755;-54
2022/02/23 11:43:55;;;;;;;6.85;3.30;;;;;;;;;;5035680;28;20426;-54
2022/02/23 11:46:21;;;;;;;5.87;2.93;;;;;;;;;;5043242;28;20161;-54
2022/02/23 11:48:49;;;;;;;7.23;2.93;;;;;;;;;;5016091;28;20166;-54
2022/02/23 11:51:30;;;;;;;5.97;2.93;;;;;;;;;;5041243;28;20696;-55
2022/02/23 11:53:56;;;;;;;5.07;2.50;;;;;;;;;;5017363;28;20664;-55
2022/02/23 11:56:22;;;;;;;7.27;2.63;;;;;;;;;;5030682;28;20205;-55
2022/02/23 11:58:50;;;;;;;5.07;2.83;;;;;;;;;;5032506;28;20224;-54
2022/02/23 12:01:17;;;;;;;7.83;2.57;;;;;;;;;;5034930;28;20275;-57
2022/02/23 12:04:03;;;;;;;4.97;2.63;;;;;;;;;;5008224;28;20182;-55
2022/02/23 12:06:29;;;;;;;5.63;2.60;;;;;;;;;;5010927;28;20327;-54
2022/02/23 12:08:55;;;;;;;7.33;3.00;;;;;;;;;;5039649;28;20174;-53
2022/02/23 12:11:21;;;;;;;6.93;2.83;;;;;;;;;;5033281;28;20266;-55
2022/02/23 12:13:49;;;;;;;5.73;2.50;;;;;;;;;;5036882;28;20173;-57
2022/02/23 12:16:32;;;;;;;3.77;2.73;;;;;;;;;;5032573;28;20558;-54
2022/02/23 12:19:03;;;;;;;4.93;2.60;;;;;;;;;;5018942;28;20637;-54
2022/02/23 12:21:39;;;;;;;5.43;2.80;;;;;;;;;;5038133;28;20614;-54
2022/02/23 12:24:05;;;;;;;5.23;2.60;;;;;;;;;;5041655;28;20173;-56
2022/02/23 12:26:36;;;;;;;3.93;2.40;;;;;;;;;;5039000;28;20173;-57
2022/02/23 12:29:04;;;;;;;6.27;3.10;;;;;;;;;;5034372;28;20180;-55
2022/02/23 12:31:32;;;;;;;5.47;2.53;;;;;;;;;;5015858;28;20268;-55
2022/02/23 12:34:01;;;;;;;7.33;2.60;;;;;;;;;;4999868;28;1157021;-55
2022/02/23 12:36:29;;;;;;;9.03;2.40;;;;;;;;;;5013230;28;20217;-58
2022/02/23 12:38:56;;;;;;;5.43;2.50;;;;;;;;;;5016830;28;20243;-55
2022/02/23 12:41:24;;;;;;;7.00;2.63;;;;;;;;;;5042315;28;20292;-55
2022/02/23 12:43:56;;;;;;;6.33;3.50;;;;;;;;;;5025271;28;20532;-54
2022/02/23 12:46:23;;;;;;;7.53;3.03;;;;;;;;;;5039945;28;20177;-55
2022/02/23 12:48:49;;;;;;;5.80;2.53;;;;;;;;;;5006573;28;20200;-54
2022/02/23 12:51:15;;;;;;;9.50;2.70;;;;;;;;;;5037033;28;20188;-54
2022/02/23 12:53:45;;;;;;;6.37;2.63;;;;;;;;;;5036792;28;20177;-54
2022/02/23 12:56:23;;;;;;;7.37;3.00;;;;;;;;;;5044065;28;20224;-54
2022/02/23 12:58:51;;;;;;;3.80;2.40;;;;;;;;;;5022607;28;20178;-55
2022/02/23 13:01:24;;;;;;;5.43;2.80;;;;;;;;;;5025021;28;20220;-57
2022/02/23 13:03:54;;;;;;;4.30;2.40;;;;;;;;;;5028576;28;20181;-55
2022/02/23 13:06:30;;;;;;;3.87;2.20;;;;;;;;;;5046184;28;20597;-55
2022/02/23 13:09:00;;;;;;;4.00;2.13;;;;;;;;;;5011453;28;20235;-56
2022/02/23 13:11:46;;;;;;;5.07;2.27;;;;;;;;;;5025333;28;20181;-55
2022/02/23 13:14:15;;;;;;;9.23;2.33;;;;;;;;;;5049569;28;20186;-55
2022/02/23 13:16:44;;;;;;;6.13;2.50;;;;;;;;;;5028977;28;20174;-55
2022/02/23 13:19:17;;;;;;;5.60;2.50;;;;;;;;;;5019633;28;20223;-55
2022/02/23 13:21:45;;;;;;;4.90;2.77;;;;;;;;;;5019080;28;20205;-55
2022/02/23 13:24:12;;;;;;;6.33;2.47;;;;;;;;;;5005543;28;20247;-54
2022/02/23 13:26:39;;;;;;;5.33;2.33;;;;;;;;;;5037400;28;20188;-56
2022/02/23 13:29:08;;;;;;;4.67;3.17;;;;;;;;;;5019313;28;20173;-55
2022/02/23 13:31:45;;;;;;;6.57;2.27;;;;;;;;;;5019863;28;20177;-55
2022/02/23 13:34:27;;;;;;;4.87;2.20;;;;;;;;;;5024112;28;20213;-55
2022/02/23 13:36:55;;;;;;;6.57;2.30;;;;;;;;;;5026151;28;20273;-56
2022/02/23 13:39:26;;;;;;;4.87;2.10;;;;;;;;;;5001971;28;20189;-55
2022/02/23 13:41:53;;;;;;;5.20;2.40;;;;;;;;;;5026071;28;20202;-55
2022/02/23 13:44:24;;;;;;;4.93;2.10;;;;;;;;;;5017448;28;20179;-56
2022/02/23 13:46:52;;;;;;;4.70;2.53;;;;;;;;;;5009979;28;20166;-55
2022/02/23 13:49:18;;;;;;;3.63;2.20;;;;;;;;;;4995851;28;20558;-57
2022/02/23 13:51:45;;;;;;;3.57;2.13;;;;;;;;;;5009788;28;20174;-55
2022/02/23 13:54:11;;;;;;;6.37;2.40;;;;;;;;;;5008523;28;20182;-55
2022/02/23 13:56:45;;;;;;;4.90;2.60;;;;;;;;;;5008387;28;20284;-56
2022/02/23 13:59:14;;;;;;;4.10;2.60;;;;;;;;;;4991550;28;20182;-55
2022/02/23 14:02:03;;;;;;;3.83;2.07;;;;;;;;;;4993003;28;20717;-56
2022/02/23 14:04:36;;;;;;;5.33;2.93;;;;;;;;;;5001403;28;20170;-55
2022/02/23 14:07:02;;;;;;;5.23;2.50;;;;;;;;;;5009075;28;20185;-55
2022/02/23 14:09:36;;;;;;;5.30;2.80;;;;;;;;;;5008513;28;20189;-57
2022/02/23 14:12:02;;;;;;;5.93;2.40;;;;;;;;;;5008626;28;20227;-57
2022/02/23 14:14:36;;;;;;;7.37;2.47;;;;;;;;;;5025759;28;20178;-56
2022/02/23 14:17:12;;;;;;;4.40;2.33;;;;;;;;;;4991390;28;20194;-55
2022/02/23 14:19:39;;;;;;;5.03;2.37;;;;;;;;;;5003767;28;20265;-57
2022/02/23 14:22:06;;;;;;;5.43;2.33;;;;;;;;;;4994277;28;20216;-56
2022/02/23 14:24:34;;;;;;;4.60;2.30;;;;;;;;;;5017945;28;20183;-55
2022/02/23 14:27:03;;;;;;;7.57;2.90;;;;;;;;;;5008821;28;20182;-56
2022/02/23 14:29:31;;;;;;;4.53;2.07;;;;;;;;;;4988914;28;20183;-56
2022/02/23 14:31:57;;;;;;;4.33;2.13;;;;;;;;;;5021572;28;20214;-55
2022/02/23 14:34:23;;;;;;;3.23;2.17;;;;;;;;;;5022923;28;20221;-56
2022/02/23 14:36:51;;;;;;;5.40;2.27;;;;;;;;;;5033093;28;20185;-54
2022/02/23 14:39:18;;;;;;;5.57;2.47;;;;;;;;;;5041385;28;20197;-55
2022/02/23 14:41:44;;;;;;;3.23;2.57;;;;;;;;;;5006493;28;20279;-56
2022/02/23 14:44:11;;;;;;;5.43;2.47;;;;;;;;;;5017755;28;20657;-56
2022/02/23 14:46:38;;;;;;;4.80;2.33;;;;;;;;;;5029597;28;20232;-55
2022/02/23 14:49:05;;;;;;;4.87;2.13;;;;;;;;;;5008258;28;20612;-57